createdAt,value
2019-02-15T00:02:32.964Z,17.82
2019-02-15T00:05:22.515Z,21.50
2019-02-15T00:08:11.479Z,18.15
2019-02-15T00:11:00.438Z,23.70
2019-02-15T00:13:49.274Z,19.07
2019-02-15T00:16:38.671Z,17.82
2019-02-15T00:19:29.847Z,19.45
2019-02-15T00:22:19.259Z,17.75
2019-02-15T00:25:08.628Z,26.90
2019-02-15T00:27:57.888Z,19.95
2019-02-15T00:30:47.219Z,18.98
2019-02-15T00:33:36.147Z,25.60
2019-02-15T00:36:25.505Z,26.42
2019-02-15T00:39:14.959Z,28.00
2019-02-15T00:42:04.364Z,24.65
2019-02-15T00:44:53.138Z,33.42
2019-02-15T00:47:55.374Z,22.37
2019-02-15T00:50:48.389Z,30.52
2019-02-15T00:53:54.580Z,20.92
2019-02-15T00:56:53.938Z,19.05
2019-02-15T00:59:44.378Z,22.93
2019-02-15T01:02:38.288Z,27.75
2019-02-15T01:05:31.252Z,21.15
2019-02-15T01:08:22.069Z,20.62
2019-02-15T01:11:13.123Z,20.85
2019-02-15T01:14:01.785Z,21.05
2019-02-15T01:16:51.183Z,23.47
2019-02-15T01:19:40.060Z,24.15
2019-02-15T01:22:29.623Z,18.15
2019-02-15T01:25:18.633Z,19.30
2019-02-15T01:28:12.488Z,22.05
2019-02-15T01:31:11.963Z,23.32
2019-02-15T01:34:11.877Z,17.10
2019-02-15T01:37:08.098Z,16.75
2019-02-15T01:39:59.142Z,21.65
2019-02-15T01:42:49.460Z,19.25
2019-02-15T01:45:39.906Z,18.65
2019-02-15T01:48:29.299Z,19.90
2019-02-15T01:51:19.049Z,22.55
2019-02-15T01:54:08.485Z,22.48
2019-02-15T01:56:57.611Z,23.40
2019-02-15T01:59:46.949Z,16.93
2019-02-15T02:02:36.476Z,20.60
2019-02-15T02:05:25.725Z,19.45
2019-02-15T02:08:16.466Z,16.33
2019-02-15T02:11:05.250Z,18.57
2019-02-15T02:13:54.165Z,16.90
2019-02-15T02:16:43.250Z,17.40
2019-02-15T02:19:32.188Z,17.20
2019-02-15T02:22:21.967Z,16.70
2019-02-15T02:25:11.167Z,19.65
2019-02-15T02:28:00.399Z,17.10
2019-02-15T02:30:48.955Z,20.52
2019-02-15T02:33:38.634Z,18.00
2019-02-15T02:36:49.709Z,16.15
2019-02-15T02:39:38.574Z,17.55
2019-02-15T02:42:27.225Z,22.77
2019-02-15T02:45:15.794Z,21.73
2019-02-15T02:48:04.953Z,19.85
2019-02-15T02:50:53.925Z,19.77
2019-02-15T02:53:43.584Z,18.82
2019-02-15T02:56:33.065Z,23.00
2019-02-15T02:59:22.075Z,16.90
2019-02-15T03:02:11.496Z,16.40
2019-02-15T03:04:59.947Z,26.07
2019-02-15T03:07:49.526Z,26.60
2019-02-15T03:10:38.662Z,19.57
2019-02-15T03:13:28.064Z,20.45
2019-02-15T03:19:06.498Z,21.10
2019-02-15T03:21:55.874Z,28.20
2019-02-15T03:24:44.896Z,23.80
2019-02-15T03:27:34.201Z,25.65
2019-02-15T03:30:23.668Z,23.53
2019-02-15T03:33:13.566Z,23.98
2019-02-15T03:36:04.594Z,23.45
2019-02-15T03:38:56.097Z,23.00
2019-02-15T03:41:45.877Z,27.75
2019-02-15T03:44:35.403Z,27.45
2019-02-15T03:47:25.745Z,22.10
2019-02-15T03:50:14.221Z,22.87
2019-02-15T03:53:02.957Z,26.77
2019-02-15T03:55:52.438Z,25.43
2019-02-15T03:58:42.016Z,25.92
2019-02-15T04:01:31.253Z,26.93
2019-02-15T04:04:20.550Z,28.97
2019-02-15T04:07:09.825Z,25.68
2019-02-15T04:09:59.087Z,25.90
2019-02-15T04:12:48.529Z,24.40
2019-02-15T04:15:39.132Z,23.15
2019-02-15T04:18:28.323Z,24.00
2019-02-15T04:21:17.399Z,21.57
2019-02-15T04:24:06.359Z,26.00
2019-02-15T04:26:55.107Z,25.88
2019-02-15T04:29:44.583Z,27.75
2019-02-15T04:32:34.057Z,23.62
2019-02-15T04:35:22.500Z,27.98
2019-02-15T04:38:11.676Z,25.62
2019-02-15T04:41:02.190Z,24.65
2019-02-15T04:43:51.234Z,34.70
2019-02-15T04:46:40.552Z,23.98
2019-02-15T04:49:30.012Z,26.48
2019-02-15T04:52:19.453Z,25.62
2019-02-15T04:55:08.541Z,27.43
2019-02-15T04:57:57.786Z,31.80
2019-02-15T05:00:46.656Z,26.12
2019-02-15T05:03:35.407Z,35.50
2019-02-15T05:06:24.569Z,24.82
2019-02-15T05:09:14.149Z,29.15
2019-02-15T05:12:02.759Z,28.27
2019-02-15T05:14:53.464Z,27.87
2019-02-15T05:17:43.495Z,26.37
2019-02-15T05:20:32.563Z,28.47
2019-02-15T05:23:22.135Z,31.12
2019-02-15T05:26:11.132Z,29.55
2019-02-15T05:29:00.372Z,25.75
2019-02-15T05:31:49.168Z,25.33
2019-02-15T05:34:38.505Z,27.30
2019-02-15T05:37:27.933Z,25.27
2019-02-15T05:40:17.456Z,24.23
2019-02-15T05:43:06.812Z,34.63
2019-02-15T05:45:56.226Z,29.63
2019-02-15T05:48:45.872Z,32.30
2019-02-15T05:51:34.496Z,31.02
2019-02-15T05:54:23.584Z,28.95
2019-02-15T05:57:12.828Z,28.27
2019-02-15T06:00:02.233Z,32.70
2019-02-15T06:02:51.394Z,28.27
2019-02-15T06:05:40.134Z,30.02
2019-02-15T06:08:31.191Z,28.20
2019-02-15T06:11:19.275Z,28.93
2019-02-15T06:14:08.266Z,37.50
2019-02-15T06:16:57.750Z,28.52
2019-02-15T06:19:47.010Z,28.10
2019-02-15T06:22:36.589Z,28.77
2019-02-15T06:25:25.648Z,29.32
2019-02-15T06:28:15.023Z,33.85
2019-02-15T06:31:04.484Z,33.33
2019-02-15T06:33:53.866Z,28.40
2019-02-15T06:36:42.901Z,29.60
2019-02-15T06:39:32.207Z,27.90
2019-02-15T06:42:21.849Z,26.23
2019-02-15T06:45:11.259Z,29.42
2019-02-15T06:48:00.665Z,28.02
2019-02-15T06:50:50.339Z,27.45
2019-02-15T06:53:40.192Z,32.93
2019-02-15T06:56:29.143Z,27.47
2019-02-15T06:59:23.750Z,31.40
2019-02-15T07:02:17.135Z,32.15
2019-02-15T07:05:23.989Z,32.40
2019-02-15T07:08:12.960Z,26.35
2019-02-15T07:11:01.774Z,30.82
2019-02-15T07:13:50.984Z,24.12
2019-02-15T07:16:39.758Z,24.05
2019-02-15T07:19:28.729Z,27.45
2019-02-15T07:22:17.541Z,26.97
2019-02-15T07:25:10.638Z,30.88
2019-02-15T07:28:00.192Z,21.23
2019-02-15T07:30:49.511Z,26.20
2019-02-15T07:33:39.043Z,21.75
2019-02-15T07:36:28.164Z,24.40
2019-02-15T09:26:01.663Z,18.80
2019-02-15T09:45:41.218Z,18.35
2019-02-15T09:48:30.179Z,24.35
2019-02-15T09:51:19.150Z,20.10
2019-02-15T10:08:09.924Z,34.90
2019-02-15T10:10:58.909Z,24.85
2019-02-15T10:13:48.406Z,16.53
2019-02-15T10:19:25.687Z,16.00
2019-02-15T10:30:40.417Z,13.90
2019-02-15T10:41:56.676Z,15.80
2019-02-15T10:44:45.946Z,17.25
2019-02-15T10:47:35.017Z,21.05
2019-02-15T10:50:24.785Z,13.70
2019-02-15T11:07:15.385Z,18.60
2019-02-15T17:34:54.222Z,7.37
2019-02-15T17:37:43.634Z,8.98
2019-02-15T17:40:32.764Z,9.28
2019-02-15T17:43:21.627Z,11.40
2019-02-15T17:46:10.786Z,15.93
2019-02-15T17:49:01.045Z,14.10
2019-02-15T17:51:50.884Z,16.55
2019-02-15T18:48:05.390Z,10.63
2019-02-15T18:53:43.531Z,11.67
2019-02-15T18:56:32.416Z,12.20
2019-02-15T18:59:21.646Z,10.40
2019-02-15T19:16:12.757Z,8.90
2019-02-15T20:29:17.600Z,11.00
2019-02-15T20:40:31.387Z,8.60
2019-02-15T20:46:08.602Z,10.03
2019-02-15T20:54:36.512Z,12.60
2019-02-15T21:00:27.643Z,8.75
2019-02-15T21:03:16.655Z,7.80
2019-02-15T21:20:14.821Z,6.50
2019-02-15T21:23:03.591Z,13.50
2019-02-15T21:31:29.505Z,6.27
2019-02-15T21:34:18.430Z,7.20
2019-02-15T21:37:07.114Z,6.17
2019-02-15T21:39:56.287Z,7.58
2019-02-15T21:42:45.409Z,9.63
2019-02-15T21:45:34.925Z,7.37
2019-02-15T21:59:37.173Z,5.90
2019-02-15T22:02:26.264Z,8.63
2019-02-15T22:08:04.177Z,5.60
2019-02-15T22:10:53.653Z,6.50
2019-02-15T22:44:34.653Z,8.55
2019-02-15T22:47:24.062Z,4.37
2019-02-15T22:50:13.275Z,13.95
2019-02-15T22:53:02.443Z,5.30
2019-02-15T22:55:51.203Z,5.12
2019-02-15T22:58:40.603Z,9.78
2019-02-15T23:01:30.348Z,7.20
2019-02-15T23:04:19.426Z,4.92
2019-02-15T23:07:08.482Z,5.92
2019-02-15T23:09:57.911Z,4.97
2019-02-15T23:12:47.296Z,5.75
2019-02-15T23:15:36.733Z,5.87
2019-02-15T23:18:25.806Z,8.40
2019-02-15T23:21:14.975Z,6.47
2019-02-15T23:24:03.778Z,13.22
2019-02-15T23:26:53.548Z,6.60
2019-02-15T23:29:42.513Z,11.12
2019-02-15T23:32:31.808Z,6.78
2019-02-15T23:35:20.839Z,6.50
2019-02-15T23:38:09.934Z,7.45
2019-02-15T23:40:58.767Z,9.80
2019-02-15T23:43:47.962Z,6.47
2019-02-15T23:46:37.444Z,7.15
2019-02-15T23:49:26.638Z,14.47
2019-02-15T23:52:15.550Z,10.40
2019-02-15T23:55:05.768Z,11.90
2019-02-15T23:57:55.133Z,9.28
